SARF/FMA METAR and TAF weather

Enter ICAO airport designator
Station Type Date Time Source
SARF METAR 2022/01/29 11:00 UTC NOAA

SARF 291100Z 14004KT 9000 NSC 23/17 Q1009


Station Type Date Time Source
SARF Decoded METAR 2022/01/29 11:00 UTC NOAA

Formosa Aerodrome, Argentina (SARF) 26-12S 058-14W 60M
Jan 29, 2022 - 06:00 AM EST / 2022.01.29 1100 UTC
Wind: from the SE (140 degrees) at 5 MPH (4 KT):0
Visibility: 5 mile(s):0
Temperature: 73 F (23 C)
Dew Point: 62 F (17 C)
Relative Humidity: 68%
Pressure (altimeter): 29.80 in. Hg (1009 hPa)
ob: SARF 291100Z 14004KT 9000 NSC 23/17 Q1009
cycle: 11

Station Type Date Time Source
SARF TAF 2022/01/29 12:09 UTC NOAA

TAF SARF 291100Z 2912/3012 16005KT 8000 NSC TX35/2919Z TN23/3010Z
BECMG 2921/2923 CAVOK

Example: see airport list